logo

United by the hobby
of model aircraft flying

Promoting safe
radio model flying

Sharing the experience
of RC flying

Dedicated to the sport of model aviation

Meeting
Venue

Third Monday Each Month
Crown Point Civic Center
101 S East Street
Crown Point, IN 46307

Read More

email:
[javascript protected email address]

View our events calendar

2020

Weather Conditions

Elev 730 ft    41.19°N  87.16°W

73.0 °F
010°
5 m/h
Wind Variable Wind from North

Current Conditions

Pressure 29.95 in
Visibility 10 miles
Clouds Mostly
Dew Point 64.9 °F
Humidity 75 %
Rainfall 0.00 in
 
METAR KVPZ 060556Z AUTO 01004KT 10SM FEW060 23/18 A2995 RMK AO2 SLP134 T02280183 10289 20222 403170183 51010

Forecast

INFORMATION PROVIDED BY THE INDIANA STATE FORECAST - NATIONAL WEATHER SERVICE
Sunrise & Sunset
June 6, 2020
S:43 AM

8:23 PM
High 77 | Low 59°F
June 7, 2020
S:43 AM

8:23 PM
High | Low °F
 

our gallery

View All